createdAt,value
2017-05-17T00:00:20.047Z,56
2017-05-17T00:01:00.556Z,56.38
2017-05-17T00:01:41.119Z,56.76
2017-05-17T00:02:22.581Z,56.29
2017-05-17T00:03:03.072Z,56.41
2017-05-17T00:03:43.576Z,56.12
2017-05-17T00:05:31.052Z,56.57
2017-05-17T00:06:11.558Z,56.67
2017-05-17T00:06:52.070Z,56.86
2017-05-17T00:07:32.555Z,56.96
2017-05-17T00:08:13.054Z,56.96
2017-05-17T00:08:53.546Z,57.34
2017-05-17T00:09:34.037Z,57.92
2017-05-17T00:10:14.676Z,57.82
2017-05-17T00:10:55.075Z,57.63
2017-05-17T00:11:35.585Z,57.63
2017-05-17T00:12:17.032Z,57.63
2017-05-17T00:12:57.523Z,57.53
2017-05-17T00:13:38.018Z,57.53
2017-05-17T00:14:18.506Z,57.53
2017-05-17T00:14:58.962Z,57.43
2017-05-17T00:15:39.455Z,58.01
2017-05-17T00:16:19.943Z,58.39
2017-05-17T00:17:00.430Z,58.01
2017-05-17T00:17:40.933Z,57.98
2017-05-17T00:18:21.427Z,58.3
2017-05-17T00:19:01.916Z,58.65
2017-05-17T00:19:42.389Z,58.56
2017-05-17T00:20:22.863Z,58.65
2017-05-17T00:21:03.357Z,59.23
2017-05-17T00:21:44.853Z,58.94
2017-05-17T00:22:25.361Z,58.56
2017-05-17T00:23:05.859Z,59.23
2017-05-17T00:23:46.354Z,59.04
2017-05-17T00:24:26.839Z,59.04
2017-05-17T00:25:07.374Z,59.33
2017-05-17T00:25:47.874Z,59.61
2017-05-17T00:26:28.362Z,59.04
2017-05-17T00:27:10.252Z,59.13
2017-05-17T00:27:50.746Z,59.9
2017-05-17T00:28:31.263Z,59.9
2017-05-17T00:29:11.793Z,59.71
2017-05-17T00:29:52.293Z,59.71
2017-05-17T00:30:32.777Z,59.8
2017-05-17T00:31:13.274Z,59.9
2017-05-17T00:31:53.825Z,59.71
2017-05-17T00:32:35.045Z,60.19
2017-05-17T00:33:16.458Z,59.9
2017-05-17T00:33:56.942Z,59.9
2017-05-17T00:34:37.408Z,59.42
2017-05-17T00:36:24.869Z,60
2017-05-17T00:37:05.354Z,60
2017-05-17T00:37:45.854Z,59.42
2017-05-17T00:38:26.946Z,59.71
2017-05-17T00:39:08.082Z,59.8
2017-05-17T00:39:48.580Z,60.19
2017-05-17T00:40:29.073Z,59.9
2017-05-17T00:41:09.566Z,60
2017-05-17T00:41:50.055Z,60.09
2017-05-17T00:42:30.545Z,59.71
2017-05-17T00:43:11.020Z,59.71
2017-05-17T00:43:51.512Z,59.8
2017-05-17T00:44:31.999Z,59.33
2017-05-17T00:45:12.459Z,59.13
2017-05-17T00:45:52.926Z,59.23
2017-05-17T00:47:45.470Z,59.13
2017-05-17T00:48:25.964Z,59.23
2017-05-17T00:49:07.032Z,59.13
2017-05-17T00:49:47.520Z,59.04
2017-05-17T00:50:28.015Z,59.13
2017-05-17T00:51:08.516Z,59.04
2017-05-17T00:51:49.862Z,59.42
2017-05-17T00:52:30.352Z,59.61
2017-05-17T00:53:12.359Z,59.13
2017-05-17T00:53:52.848Z,59.8
2017-05-17T00:54:34.170Z,59.61
2017-05-17T00:55:14.710Z,59.71
2017-05-17T00:55:55.172Z,60.16
2017-05-17T00:56:35.661Z,60.19
2017-05-17T00:57:16.158Z,59.8
2017-05-17T00:57:56.641Z,60
2017-05-17T00:58:38.946Z,59.8
2017-05-17T00:59:19.437Z,60.09
2017-05-17T00:59:59.913Z,59.97
2017-05-17T01:00:40.399Z,60.28
2017-05-17T01:01:20.866Z,60.19
2017-05-17T01:02:01.346Z,59.71
2017-05-17T01:02:41.845Z,60
2017-05-17T01:03:22.327Z,59.9
2017-05-17T01:04:02.822Z,59.8
2017-05-17T01:04:43.338Z,60
2017-05-17T01:05:24.574Z,60.09
2017-05-17T01:06:05.863Z,59.9
2017-05-17T01:06:46.360Z,59.23
2017-05-17T01:07:26.852Z,59.33
2017-05-17T01:08:07.346Z,59.71
2017-05-17T01:08:47.795Z,59.71
2017-05-17T01:09:28.947Z,60.19
2017-05-17T01:10:10.270Z,59.8
2017-05-17T01:10:50.794Z,59.71
2017-05-17T01:11:31.282Z,60.09
2017-05-17T01:12:11.771Z,59.9
2017-05-17T01:12:52.256Z,59.9
2017-05-17T01:13:33.370Z,60
2017-05-17T01:14:14.767Z,59.42
2017-05-17T01:14:55.272Z,59.9
2017-05-17T01:15:35.902Z,59.8
2017-05-17T01:16:17.272Z,59.8
2017-05-17T01:16:57.767Z,60.09
2017-05-17T01:17:38.266Z,60
2017-05-17T01:18:18.767Z,59.68
2017-05-17T01:18:59.253Z,59.8
2017-05-17T01:19:39.750Z,59.9
2017-05-17T01:20:20.408Z,59.9
2017-05-17T01:21:00.839Z,59.61
2017-05-17T01:23:13.656Z,59.71
2017-05-17T01:23:54.138Z,60.19
2017-05-17T01:24:34.634Z,60.19
2017-05-17T01:25:15.804Z,60.19
2017-05-17T01:25:55.727Z,59.8
2017-05-17T01:26:36.227Z,59.23
2017-05-17T01:27:16.704Z,59.04
2017-05-17T01:27:57.195Z,59.42
2017-05-17T01:28:37.703Z,59.23
2017-05-17T01:29:18.186Z,59.23
2017-05-17T01:29:59.412Z,59.13
2017-05-17T01:30:40.041Z,59.8
2017-05-17T01:31:21.320Z,59.33
2017-05-17T01:32:01.817Z,59.71
2017-05-17T01:32:42.311Z,60.19
2017-05-17T01:33:22.799Z,59.8
2017-05-17T01:34:03.288Z,60.09
2017-05-17T01:36:00.916Z,59.97
2017-05-17T01:36:41.414Z,60.25
2017-05-17T01:37:21.933Z,60.16
2017-05-17T01:38:02.438Z,60.93
2017-05-17T01:38:42.936Z,60.35
2017-05-17T01:39:23.422Z,60.54
2017-05-17T01:40:04.808Z,59.97
2017-05-17T01:40:46.032Z,60.06
2017-05-17T01:41:26.555Z,60.35
2017-05-17T01:42:07.043Z,60.64
2017-05-17T01:42:48.119Z,59.97
2017-05-17T01:43:28.605Z,60.54
2017-05-17T01:44:09.983Z,61.11
2017-05-17T01:44:50.477Z,60.25
2017-05-17T01:45:30.967Z,60.35
2017-05-17T01:46:11.460Z,60.54
2017-05-17T01:46:51.942Z,60.54
2017-05-17T01:47:32.424Z,60.06
2017-05-17T01:48:12.930Z,60.19
2017-05-17T01:48:53.416Z,59.97
2017-05-17T01:49:33.908Z,60.19
2017-05-17T01:50:14.406Z,60
2017-05-17T01:50:54.891Z,59.8
2017-05-17T01:51:35.384Z,60.06
2017-05-17T01:52:16.620Z,60
2017-05-17T01:52:57.111Z,59.8
2017-05-17T01:53:37.612Z,60.28
2017-05-17T01:54:18.105Z,60.38
2017-05-17T01:54:58.603Z,60.28
2017-05-17T01:55:39.123Z,60.44
2017-05-17T01:56:19.615Z,60.44
2017-05-17T01:57:00.105Z,60.16
2017-05-17T01:57:40.570Z,60.25
2017-05-17T01:58:21.063Z,60.54
2017-05-17T01:59:01.550Z,60.35
2017-05-17T01:59:42.818Z,60.25
2017-05-17T02:00:23.397Z,60.35
2017-05-17T02:01:04.399Z,60.44
2017-05-17T02:01:44.889Z,61.02
2017-05-17T02:02:25.382Z,61.02
2017-05-17T02:03:05.858Z,61.21
2017-05-17T02:03:46.344Z,60.64
2017-05-17T02:04:26.834Z,60.83
2017-05-17T02:05:07.342Z,61.11
2017-05-17T02:05:47.866Z,61.21
2017-05-17T02:06:28.362Z,61.02
2017-05-17T02:07:08.862Z,61.21
2017-05-17T02:07:49.350Z,60.73
2017-05-17T02:08:30.625Z,61.02
2017-05-17T02:09:11.121Z,60.83
2017-05-17T02:09:51.620Z,60.64
2017-05-17T02:10:32.111Z,60.93
2017-05-17T02:11:12.600Z,61.21
2017-05-17T02:11:53.098Z,61.31
2017-05-17T02:12:33.546Z,61.31
2017-05-17T02:13:13.985Z,61.31
2017-05-17T02:13:54.464Z,61.69
2017-05-17T02:14:34.957Z,61.88
2017-05-17T02:15:15.517Z,62.07
2017-05-17T02:15:55.988Z,61.79
2017-05-17T02:16:36.476Z,61.69
2017-05-17T02:17:16.956Z,62.07
2017-05-17T02:17:57.450Z,61.88
2017-05-17T02:18:37.938Z,61.98
2017-05-17T02:19:18.447Z,61.79
2017-05-17T02:19:58.935Z,62.36
2017-05-17T02:20:39.483Z,62.46
2017-05-17T02:21:19.976Z,62.65
2017-05-17T02:22:01.331Z,62.65
2017-05-17T02:22:41.818Z,62.65
2017-05-17T02:23:22.331Z,62.74
2017-05-17T02:24:02.808Z,62.84
2017-05-17T02:24:43.331Z,62.71
2017-05-17T02:25:23.920Z,62.65
2017-05-17T02:26:04.990Z,63.1
2017-05-17T02:26:45.491Z,63.19
2017-05-17T02:27:25.994Z,63.39
2017-05-17T02:28:06.992Z,63.29
2017-05-17T02:28:47.488Z,63.39
2017-05-17T02:29:27.977Z,63.42
2017-05-17T02:30:08.473Z,63.42
2017-05-17T02:30:49.020Z,62.93
2017-05-17T02:31:29.533Z,63.39
2017-05-17T02:32:10.012Z,63.29
2017-05-17T02:32:50.507Z,63.19
2017-05-17T02:33:31.002Z,63.39
2017-05-17T02:34:11.495Z,63.29
2017-05-17T02:36:24.211Z,63.39
2017-05-17T02:37:05.618Z,63.57
2017-05-17T02:37:46.106Z,64.15
2017-05-17T02:38:26.651Z,63.76
2017-05-17T02:39:07.091Z,63.86
2017-05-17T02:39:47.576Z,63.67
2017-05-17T02:40:28.084Z,64.25
2017-05-17T02:41:08.566Z,64.05
2017-05-17T02:41:49.061Z,64.15
2017-05-17T02:42:30.270Z,64.72
2017-05-17T02:43:10.777Z,64.25
2017-05-17T02:43:51.783Z,63.76
2017-05-17T02:44:32.782Z,63.86
2017-05-17T02:45:13.274Z,64.25
2017-05-17T02:45:53.775Z,64.34
2017-05-17T02:46:34.253Z,64.15
2017-05-17T02:47:14.743Z,63.76
2017-05-17T02:49:12.353Z,63.96
2017-05-17T02:49:52.865Z,63.96
2017-05-17T02:50:34.055Z,64.05
2017-05-17T02:51:14.566Z,63.96
2017-05-17T02:51:55.845Z,64.25
2017-05-17T02:52:36.360Z,63.76
2017-05-17T02:53:16.901Z,63.48
2017-05-17T02:53:57.346Z,64.15
2017-05-17T02:54:37.840Z,63.96
2017-05-17T02:55:19.121Z,64.15
2017-05-17T02:56:01.244Z,63.67
2017-05-17T02:56:41.743Z,63.57
2017-05-17T02:57:22.235Z,64.05
2017-05-17T02:58:02.731Z,64.05
2017-05-17T02:58:43.217Z,64.43
2017-05-17T02:59:23.702Z,64.15
2017-05-17T03:00:04.194Z,64.05
2017-05-17T03:00:44.772Z,63.96
2017-05-17T03:01:25.263Z,63.67
2017-05-17T03:02:05.770Z,64.15
2017-05-17T03:02:46.286Z,64.34
2017-05-17T03:03:26.797Z,64.53
2017-05-17T03:04:07.303Z,64.53
2017-05-17T03:04:47.799Z,64.82
2017-05-17T03:05:28.296Z,64.53
2017-05-17T03:06:08.800Z,64.53
2017-05-17T03:06:49.284Z,64.72
2017-05-17T03:07:29.787Z,64.82
2017-05-17T03:08:10.289Z,65.17
2017-05-17T03:08:50.786Z,65.3
2017-05-17T03:09:31.273Z,64.92
2017-05-17T03:10:11.763Z,65.39
2017-05-17T03:10:52.287Z,65.3
2017-05-17T03:11:33.744Z,65.39
2017-05-17T03:12:14.229Z,65.2
2017-05-17T03:12:54.712Z,65.2
2017-05-17T03:13:36.059Z,65.49
2017-05-17T03:14:16.552Z,65.49
2017-05-17T03:14:57.044Z,65.36
2017-05-17T03:15:37.570Z,65.2
2017-05-17T03:16:18.027Z,64.63
2017-05-17T03:16:58.524Z,65.01
2017-05-17T03:18:51.066Z,65.11
2017-05-17T03:19:31.549Z,65.01
2017-05-17T03:20:12.042Z,65.17
2017-05-17T03:20:52.560Z,65.65
2017-05-17T03:21:33.063Z,65.55
2017-05-17T03:22:13.532Z,65.45
2017-05-17T03:22:54.027Z,65.55
2017-05-17T03:23:35.365Z,65.68
2017-05-17T03:24:17.352Z,65.49
2017-05-17T03:24:57.852Z,65.68
2017-05-17T03:25:38.338Z,65.39
2017-05-17T03:26:18.831Z,65.3
2017-05-17T03:26:59.334Z,65.49
2017-05-17T03:27:39.773Z,65.68
2017-05-17T03:28:20.251Z,65.58
2017-05-17T03:29:00.731Z,65.97
2017-05-17T03:29:41.218Z,65.58
2017-05-17T03:30:22.680Z,65.49
2017-05-17T03:31:03.168Z,65.2
2017-05-17T03:31:43.701Z,65.01
2017-05-17T03:32:24.148Z,65.65
2017-05-17T03:33:04.640Z,65.39
2017-05-17T03:33:45.135Z,65.3
2017-05-17T03:34:26.129Z,65.49
2017-05-17T03:35:06.626Z,65.49
2017-05-17T03:35:47.128Z,65.39
2017-05-17T03:36:27.616Z,65.49
2017-05-17T03:37:08.109Z,65.55
2017-05-17T03:37:48.599Z,65.78
2017-05-17T03:38:29.092Z,65.68
2017-05-17T03:39:09.610Z,65.88
2017-05-17T03:39:50.106Z,66.32
2017-05-17T03:40:30.592Z,66.32
2017-05-17T03:41:11.083Z,66.51
2017-05-17T03:41:51.578Z,66.22
2017-05-17T03:42:32.067Z,66.32
2017-05-17T03:43:12.554Z,66.7
2017-05-17T03:43:53.045Z,66.41
2017-05-17T03:44:33.525Z,66.61
2017-05-17T03:45:14.006Z,66.8
2017-05-17T03:45:54.495Z,66.89
2017-05-17T03:46:34.973Z,66.61
2017-05-17T03:47:15.428Z,66.8
2017-05-17T03:47:55.910Z,66.61
2017-05-17T03:50:13.712Z,66.61
2017-05-17T03:50:54.214Z,66.32
2017-05-17T03:51:35.227Z,66.51
2017-05-17T03:52:15.760Z,66.51
2017-05-17T03:52:56.270Z,66.61
2017-05-17T03:53:36.761Z,66.51
2017-05-17T03:54:18.029Z,66.51
2017-05-17T03:54:58.521Z,66.32
2017-05-17T03:55:39.048Z,66.41
2017-05-17T03:56:19.545Z,66.89
2017-05-17T03:57:00.035Z,66.61
2017-05-17T03:57:40.517Z,66.7
2017-05-17T03:58:21.012Z,66.7
2017-05-17T03:59:02.027Z,67.08
2017-05-17T03:59:42.519Z,66.89
2017-05-17T04:00:23.021Z,66.61
2017-05-17T04:01:03.536Z,67.18
2017-05-17T04:01:43.998Z,66.51
2017-05-17T04:02:24.444Z,66.99
2017-05-17T04:03:04.892Z,66.51
2017-05-17T04:03:45.336Z,66.32
2017-05-17T04:04:26.437Z,66.61
2017-05-17T04:05:07.436Z,66.41
2017-05-17T04:05:47.908Z,66.32
2017-05-17T04:06:28.372Z,66.51
2017-05-17T04:07:08.820Z,66.41
2017-05-17T04:07:49.270Z,67.08
2017-05-17T04:08:29.701Z,66.61
2017-05-17T04:10:17.289Z,66.7
2017-05-17T04:10:57.697Z,66.51
2017-05-17T04:11:38.145Z,66.8
2017-05-17T04:12:18.576Z,66.89
2017-05-17T04:12:59.026Z,66.22
2017-05-17T04:13:39.496Z,66.89
2017-05-17T04:15:32.043Z,66.89
2017-05-17T04:16:12.510Z,67.18
2017-05-17T04:16:52.995Z,66.41
2017-05-17T04:17:33.483Z,66.8
2017-05-17T04:18:14.019Z,66.7
2017-05-17T04:18:54.462Z,67.08
2017-05-17T04:19:34.916Z,66.89
2017-05-17T04:20:15.412Z,66.61
2017-05-17T04:20:55.895Z,66.89
2017-05-17T04:21:36.374Z,66.32
2017-05-17T04:22:16.863Z,66.61
2017-05-17T04:22:57.338Z,67.08
2017-05-17T04:23:37.823Z,66.61
2017-05-17T04:24:18.307Z,66.61
2017-05-17T04:24:58.796Z,66.8
2017-05-17T04:25:39.269Z,66.51
2017-05-17T04:26:19.751Z,66.8
2017-05-17T04:27:00.237Z,66.89
2017-05-17T04:27:41.252Z,66.41
2017-05-17T04:28:21.802Z,66.41
2017-05-17T04:29:02.282Z,66.41
2017-05-17T04:29:42.767Z,66.61
2017-05-17T04:30:23.293Z,66.8
2017-05-17T04:31:04.768Z,66.41
2017-05-17T04:31:45.252Z,66.45
2017-05-17T04:32:25.743Z,66.51
2017-05-17T04:33:06.216Z,66.16
2017-05-17T04:33:46.669Z,66.13
2017-05-17T04:34:27.120Z,65.68
2017-05-17T04:35:07.599Z,65.68
2017-05-17T04:35:48.133Z,65.49
2017-05-17T04:36:28.638Z,65.88
2017-05-17T04:37:09.127Z,65.68
2017-05-17T04:37:49.610Z,65.97
2017-05-17T04:38:30.748Z,65.78
2017-05-17T04:39:11.234Z,65.88
2017-05-17T04:39:51.724Z,66.16
2017-05-17T04:40:32.208Z,65.49
2017-05-17T04:42:19.671Z,65.49
2017-05-17T04:43:00.164Z,65.39
2017-05-17T04:43:40.640Z,66.06
2017-05-17T04:45:59.773Z,65.39
2017-05-17T04:46:40.762Z,64.66
2017-05-17T04:47:21.255Z,64.56
2017-05-17T04:48:01.746Z,64.37
2017-05-17T04:48:42.234Z,63.89
2017-05-17T04:49:22.758Z,63.8
2017-05-17T04:50:03.249Z,63.7
2017-05-17T04:50:43.778Z,63.73
2017-05-17T04:51:24.275Z,62.77
2017-05-17T04:52:04.779Z,62.59
2017-05-17T04:52:45.270Z,62.2
2017-05-17T04:53:25.741Z,61.56
2017-05-17T04:54:06.242Z,61.18
2017-05-17T04:54:47.355Z,60.89
2017-05-17T04:55:27.855Z,60.5
2017-05-17T04:56:08.341Z,60.03
2017-05-17T04:56:48.832Z,60.22
2017-05-17T04:59:01.613Z,59.96
2017-05-17T04:59:42.107Z,59.09
2017-05-17T05:00:22.612Z,59.38
2017-05-17T05:01:03.122Z,58.62
2017-05-17T05:01:43.618Z,57.95
2017-05-17T05:02:24.110Z,58.04
2017-05-17T05:03:04.610Z,58.04
2017-05-17T05:03:45.098Z,58.17
2017-05-17T05:04:25.586Z,57.4
2017-05-17T05:05:06.084Z,57.97
2017-05-17T05:05:46.671Z,57.4
2017-05-17T05:06:27.171Z,56.92
2017-05-17T05:07:07.654Z,57.11
2017-05-17T05:07:48.155Z,56.82
2017-05-17T05:08:28.656Z,57.11
2017-05-17T05:09:09.105Z,56.92
2017-05-17T05:09:49.593Z,56.24
2017-05-17T05:10:30.077Z,56.18
2017-05-17T05:11:10.551Z,56.08
2017-05-17T05:11:51.016Z,55.79
2017-05-17T05:12:31.500Z,55.41
2017-05-17T05:13:12.009Z,55.51
2017-05-17T05:13:52.490Z,54.93
2017-05-17T05:15:39.990Z,54.28
2017-05-17T05:16:20.445Z,54.19
2017-05-17T05:17:00.921Z,54.19
2017-05-17T05:17:41.459Z,53.92
2017-05-17T05:18:21.950Z,53.35
2017-05-17T05:19:02.447Z,53.45
2017-05-17T05:19:42.927Z,53.16
2017-05-17T05:20:23.412Z,52.68
2017-05-17T05:21:03.932Z,52.32
2017-05-17T05:21:44.423Z,51.81
2017-05-17T05:22:24.914Z,52.77
2017-05-17T05:23:05.441Z,52.97
2017-05-17T05:23:45.888Z,52.48
2017-05-17T05:24:26.395Z,52.48
2017-05-17T05:25:06.896Z,53.16
2017-05-17T05:25:47.424Z,52.87
2017-05-17T05:26:27.909Z,52.2
2017-05-17T05:27:08.374Z,52.32
2017-05-17T05:27:48.881Z,51.84
2017-05-17T05:28:29.378Z,50.97
2017-05-17T05:29:09.872Z,51.55
2017-05-17T05:29:50.353Z,52.29
2017-05-17T05:30:30.840Z,51.91
2017-05-17T05:31:11.354Z,52.2
2017-05-17T05:31:51.841Z,51.45
2017-05-17T05:32:32.340Z,50.87
2017-05-17T05:33:12.835Z,51.07
2017-05-17T05:33:53.327Z,50.78
2017-05-17T05:34:33.818Z,51.35
2017-05-17T05:35:14.326Z,51.07
2017-05-17T05:35:54.807Z,50.97
2017-05-17T05:36:36.173Z,50.87
2017-05-17T05:37:16.652Z,50.99
2017-05-17T05:37:57.141Z,50.4
2017-05-17T05:38:37.630Z,50.42
2017-05-17T05:39:18.767Z,50.81
2017-05-17T05:39:59.254Z,50.04
2017-05-17T05:40:39.774Z,49.94
2017-05-17T05:41:20.272Z,49.65
2017-05-17T05:42:00.786Z,49.84
2017-05-17T05:42:41.272Z,49.36
2017-05-17T05:43:21.759Z,50.32
2017-05-17T05:44:02.263Z,49.94
2017-05-17T05:44:42.764Z,50.42
2017-05-17T05:45:23.276Z,50.2
2017-05-17T05:46:03.762Z,50.04
2017-05-17T05:46:45.040Z,50.42
2017-05-17T05:47:25.579Z,49.27
2017-05-17T05:48:06.073Z,49.29
2017-05-17T05:48:46.604Z,49.58
2017-05-17T05:49:27.104Z,48.81
2017-05-17T05:50:07.606Z,48.52
2017-05-17T05:50:48.108Z,48.71
2017-05-17T05:51:28.591Z,48.33
2017-05-17T05:52:09.102Z,49
2017-05-17T05:52:49.577Z,48.33
2017-05-17T05:53:30.076Z,48.61
2017-05-17T05:54:10.538Z,48.23
2017-05-17T05:54:51.021Z,48.33
2017-05-17T05:55:31.516Z,48.23
2017-05-17T05:56:11.997Z,48.16
2017-05-17T05:56:52.486Z,47.77
2017-05-17T05:57:33.782Z,47.87
2017-05-17T05:58:14.953Z,47.03
2017-05-17T05:58:55.444Z,46.91
2017-05-17T05:59:36.500Z,47.03
2017-05-17T06:01:49.318Z,45.34
2017-05-17T06:02:29.827Z,44.83
2017-05-17T06:03:10.321Z,44.76
2017-05-17T06:03:50.829Z,44.18
2017-05-17T06:04:31.309Z,43.87
2017-05-17T06:05:11.792Z,44.56
2017-05-17T06:05:52.318Z,44.25
2017-05-17T06:06:32.802Z,44.18
2017-05-17T06:07:13.319Z,44.08
2017-05-17T06:07:53.783Z,43.72
2017-05-17T06:08:34.279Z,44.27
2017-05-17T06:09:14.775Z,44.27
2017-05-17T06:09:55.238Z,43.72
2017-05-17T06:10:35.780Z,43.33
2017-05-17T06:11:16.248Z,43.16
2017-05-17T06:13:34.051Z,42.77
2017-05-17T06:14:14.576Z,41.83
2017-05-17T06:14:55.086Z,41.15
2017-05-17T06:15:35.586Z,40.4
2017-05-17T06:16:16.087Z,40.4
2017-05-17T06:16:57.480Z,40.32
2017-05-17T06:17:37.929Z,39.76
2017-05-17T06:19:25.417Z,38.21
2017-05-17T06:20:05.897Z,38.29
2017-05-17T06:20:46.424Z,38.68
2017-05-17T06:21:26.938Z,38.12
2017-05-17T06:22:07.428Z,37.36
2017-05-17T06:22:47.936Z,36.88
2017-05-17T06:23:28.461Z,37.54
2017-05-17T06:24:08.956Z,37.92
2017-05-17T06:24:49.473Z,37.46
2017-05-17T06:25:29.986Z,37.36
2017-05-17T06:26:10.485Z,37.54
2017-05-17T06:26:50.993Z,37.46
2017-05-17T06:27:31.502Z,37.26
2017-05-17T06:28:12.927Z,36.99
2017-05-17T06:28:53.445Z,36.43
2017-05-17T06:29:33.963Z,35.85
2017-05-17T06:30:14.476Z,35.48
2017-05-17T06:30:55.024Z,35.28
2017-05-17T06:31:35.520Z,35.66
2017-05-17T06:32:16.021Z,34.99
2017-05-17T06:32:56.515Z,35.19
2017-05-17T06:33:37.013Z,35.66
2017-05-17T06:34:17.512Z,36.12
2017-05-17T06:34:57.997Z,36.24
2017-05-17T06:35:38.491Z,35.94
2017-05-17T06:36:19.006Z,35.36
2017-05-17T06:36:59.540Z,34.89
2017-05-17T06:37:40.885Z,34.62
2017-05-17T06:38:21.389Z,34.23
2017-05-17T06:39:01.931Z,33.67
2017-05-17T06:39:42.494Z,32.81
2017-05-17T06:40:22.959Z,32.15
2017-05-17T06:41:03.451Z,31.37
2017-05-17T06:41:43.937Z,31.85
2017-05-17T06:42:24.445Z,31.55
2017-05-17T06:43:04.950Z,31.85
2017-05-17T06:43:45.465Z,31.38
2017-05-17T06:44:25.982Z,30.98
2017-05-17T06:45:06.542Z,31.95
2017-05-17T06:45:47.043Z,31.65
2017-05-17T06:46:27.550Z,31.68
2017-05-17T06:47:08.031Z,31.3
2017-05-17T06:47:48.535Z,30.79
2017-05-17T06:48:29.023Z,30.72
2017-05-17T06:49:09.527Z,30.54
2017-05-17T06:49:50.024Z,29.58
2017-05-17T06:50:30.517Z,28.92
2017-05-17T06:51:11.006Z,28.8
2017-05-17T06:51:51.497Z,29.1
2017-05-17T06:52:31.991Z,28.53
2017-05-17T06:53:12.483Z,28.4
2017-05-17T06:53:52.968Z,28.61
2017-05-17T06:54:33.503Z,28.14
2017-05-17T06:55:14.903Z,27.45
2017-05-17T06:55:55.402Z,27.83
2017-05-17T06:56:38.205Z,27.75
2017-05-17T06:57:18.707Z,27.55
2017-05-17T06:57:59.217Z,27.06
2017-05-17T06:58:40.629Z,27.72
2017-05-17T06:59:21.106Z,28.79
2017-05-17T07:00:01.617Z,28.42
2017-05-17T07:00:42.086Z,27.55
2017-05-17T07:01:22.589Z,27.06
2017-05-17T07:02:03.896Z,27.54
2017-05-17T07:02:44.389Z,27.45
2017-05-17T07:03:24.883Z,27.36
2017-05-17T07:04:05.390Z,27.73
2017-05-17T07:04:45.987Z,27.36
2017-05-17T07:05:27.118Z,27.65
2017-05-17T07:06:07.715Z,27.65
2017-05-17T07:07:55.358Z,27.45
2017-05-17T07:08:35.910Z,27.55
2017-05-17T07:09:16.393Z,27.37
2017-05-17T07:09:57.551Z,27.45
2017-05-17T07:10:38.027Z,27.64
2017-05-17T07:11:18.536Z,27.73
2017-05-17T07:11:59.021Z,27.65
2017-05-17T07:12:39.503Z,26.78
2017-05-17T07:13:19.946Z,27.16
2017-05-17T07:14:00.568Z,27.62
2017-05-17T07:16:18.536Z,27.45
2017-05-17T07:16:59.042Z,27.16
2017-05-17T07:17:39.544Z,26.86
2017-05-17T07:18:20.081Z,27.54
2017-05-17T07:19:00.630Z,27.54
2017-05-17T07:19:41.127Z,27.55
2017-05-17T07:20:21.611Z,27.44
2017-05-17T07:21:02.118Z,26.79
2017-05-17T07:21:43.173Z,26.97
2017-05-17T07:22:23.615Z,26.58
2017-05-17T07:23:04.120Z,27.45
2017-05-17T07:23:44.602Z,26.97
2017-05-17T07:24:25.157Z,26.97
2017-05-17T07:25:05.719Z,25.92
2017-05-17T07:25:46.830Z,26.1
2017-05-17T07:26:27.331Z,25.9
2017-05-17T07:27:07.895Z,25.62
2017-05-17T07:27:48.348Z,25.92
2017-05-17T07:28:28.886Z,25.54
2017-05-17T07:29:09.392Z,25.18
2017-05-17T07:29:49.897Z,24.32
2017-05-17T07:30:30.436Z,23.54
2017-05-17T07:31:10.969Z,23.15
2017-05-17T07:31:51.565Z,22.76
2017-05-17T07:32:32.045Z,22.38
2017-05-17T07:33:12.557Z,22.27
2017-05-17T07:33:53.080Z,24.27
2017-05-17T07:34:33.609Z,25.04
2017-05-17T07:35:14.093Z,25.53
2017-05-17T07:35:54.612Z,24.95
2017-05-17T07:36:35.626Z,24.85
2017-05-17T07:37:16.085Z,24.46
2017-05-17T07:37:56.596Z,24.57
2017-05-17T07:38:37.089Z,24.18
2017-05-17T07:39:17.627Z,24.48
2017-05-17T07:39:58.116Z,24.39
2017-05-17T07:40:38.614Z,23.82
2017-05-17T07:41:19.182Z,23.91
2017-05-17T07:41:59.647Z,22.96
2017-05-17T07:43:57.323Z,23.33
2017-05-17T07:44:38.478Z,23.24
2017-05-17T07:45:18.970Z,23.34
2017-05-17T07:46:00.078Z,22.37
2017-05-17T07:46:40.590Z,23.54
2017-05-17T07:47:21.091Z,22.38
2017-05-17T07:48:01.586Z,21.61
2017-05-17T07:48:42.105Z,22
2017-05-17T07:49:22.645Z,21.81
2017-05-17T07:50:03.177Z,21.33
2017-05-17T07:50:43.689Z,21.13
2017-05-17T07:51:24.130Z,20.84
2017-05-17T07:52:04.659Z,21.33
2017-05-17T07:52:45.749Z,21.03
2017-05-17T07:53:26.284Z,20.74
2017-05-17T07:54:06.852Z,20.72
2017-05-17T07:54:47.395Z,20.83
2017-05-17T07:55:27.898Z,21.59
2017-05-17T07:56:08.488Z,22.07
2017-05-17T07:56:49.683Z,22.85
2017-05-17T07:57:30.270Z,22.74
2017-05-17T07:58:10.830Z,23.99
2017-05-17T08:00:23.564Z,24.39
2017-05-17T08:01:04.044Z,23.34
2017-05-17T08:01:45.277Z,22.37
2017-05-17T08:02:25.750Z,21.8
2017-05-17T08:03:06.241Z,20.64
2017-05-17T08:03:46.761Z,19.96
2017-05-17T08:04:27.269Z,19.57
2017-05-17T08:05:07.723Z,20.14
2017-05-17T08:05:48.234Z,20.04
2017-05-17T08:06:28.769Z,19.18
2017-05-17T08:07:09.203Z,20.63
2017-05-17T08:07:49.746Z,19.67
2017-05-17T08:08:30.224Z,18.91
2017-05-17T08:09:10.734Z,18.34
2017-05-17T08:09:51.214Z,17.36
2017-05-17T08:10:31.677Z,18.03
2017-05-17T08:11:12.192Z,18.42
2017-05-17T08:11:52.683Z,17.65
2017-05-17T08:14:05.435Z,19.09
2017-05-17T08:14:45.926Z,18.62
2017-05-17T08:15:26.416Z,18.13
2017-05-17T08:16:06.902Z,17.67
2017-05-17T08:16:47.408Z,17.29
2017-05-17T08:17:27.885Z,16.4
2017-05-17T08:18:08.347Z,16.69
2017-05-17T08:20:22.420Z,18.52
2017-05-17T08:21:02.907Z,17.94
2017-05-17T08:21:43.398Z,18.03
2017-05-17T08:22:23.960Z,18.7
2017-05-17T08:23:04.453Z,18.13
2017-05-17T08:23:45.811Z,18.62
2017-05-17T08:24:26.308Z,18.71
2017-05-17T08:26:23.974Z,17.55
2017-05-17T08:27:05.421Z,17.16
2017-05-17T08:27:45.917Z,17.27
2017-05-17T08:28:26.457Z,16.78
2017-05-17T08:29:07.013Z,17.16
2017-05-17T08:29:48.426Z,16.69
2017-05-17T08:30:28.981Z,16.69
2017-05-17T08:31:09.515Z,16.59
2017-05-17T08:31:49.967Z,15.61
2017-05-17T08:32:30.477Z,15.32
2017-05-17T08:33:11.022Z,15.03
2017-05-17T08:33:51.528Z,15.12
2017-05-17T08:34:32.038Z,15.42
2017-05-17T08:35:12.532Z,14.83
2017-05-17T08:35:53.028Z,15.12
2017-05-17T08:36:33.517Z,15.12
2017-05-17T08:37:14.037Z,15.02
2017-05-17T08:37:54.545Z,14.54
2017-05-17T08:38:35.064Z,14.82
2017-05-17T08:39:15.565Z,15.01
2017-05-17T08:39:56.083Z,15.2
2017-05-17T08:40:37.161Z,15.02
2017-05-17T08:41:17.697Z,15.12
2017-05-17T08:41:58.227Z,15.51
2017-05-17T08:42:38.754Z,15.12
2017-05-17T08:43:19.245Z,15.5
2017-05-17T08:44:00.355Z,16.36
2017-05-17T08:44:41.754Z,17.72
2017-05-17T08:45:22.230Z,15.7
2017-05-17T08:46:02.747Z,15.22
2017-05-17T08:46:44.041Z,14.65
2017-05-17T08:47:24.566Z,14.46
2017-05-17T08:48:05.093Z,14.05
2017-05-17T08:48:45.734Z,14.63
2017-05-17T08:49:26.296Z,14.25
2017-05-17T08:50:07.002Z,14.45
2017-05-17T08:50:47.846Z,14.15
2017-05-17T08:51:28.720Z,13.86
2017-05-17T08:52:11.187Z,13.58
2017-05-17T08:52:51.110Z,13.68
2017-05-17T08:53:31.691Z,13.67
2017-05-17T08:54:12.197Z,13.48
2017-05-17T08:54:52.725Z,13.39
2017-05-17T08:55:33.218Z,13.09
2017-05-17T08:56:13.718Z,13.5
2017-05-17T08:56:54.226Z,12.22
2017-05-17T08:57:34.729Z,12.43
2017-05-17T08:58:15.296Z,11.93
2017-05-17T08:58:57.388Z,12.23
2017-05-17T08:59:38.676Z,11.65
2017-05-17T09:00:19.188Z,11.93
2017-05-17T09:00:59.675Z,10.96
2017-05-17T09:01:40.195Z,10.96
2017-05-17T09:02:21.672Z,11.54
2017-05-17T09:03:02.167Z,11.44
2017-05-17T09:03:42.702Z,12.02
2017-05-17T09:04:23.228Z,11.74
2017-05-17T09:05:03.772Z,11.63
2017-05-17T09:05:44.260Z,10.76
2017-05-17T09:06:24.799Z,10.86
2017-05-17T09:07:05.328Z,10.26
2017-05-17T09:07:45.856Z,10.86
2017-05-17T09:08:26.396Z,10.57
2017-05-17T09:09:06.870Z,10.08
2017-05-17T09:09:47.405Z,10.36
2017-05-17T09:10:27.939Z,11.24
2017-05-17T09:11:08.428Z,11.63
2017-05-17T09:11:48.926Z,13.48
2017-05-17T09:12:29.431Z,13.67
2017-05-17T09:13:09.922Z,12.99
2017-05-17T09:13:50.427Z,13.09
2017-05-17T09:14:30.920Z,13.28
2017-05-17T09:15:11.469Z,12.89
2017-05-17T09:15:51.976Z,13.96
2017-05-17T09:16:33.177Z,13.08
2017-05-17T09:17:13.676Z,13.46
2017-05-17T09:17:54.889Z,13.94
2017-05-17T09:18:35.396Z,13.96
2017-05-17T09:19:16.772Z,12.81